sensor_id;sensor_type;location;lat;lon;timestamp;pressure;altitude;pressure_sealevel;temperature;humidity
11830;BME280;5972;42.134;24.718;2024-01-16T00:00:00;98375.22;;;2.77;100.00
11830;BME280;5972;42.134;24.718;2024-01-16T00:02:27;98361.44;;;2.67;100.00
11830;BME280;5972;42.134;24.718;2024-01-16T00:04:55;98330.06;;;2.46;100.00
11830;BME280;5972;42.134;24.718;2024-01-16T00:07:22;98362.66;;;2.69;100.00
11830;BME280;5972;42.134;24.718;2024-01-16T00:09:49;98366.16;;;2.61;100.00
11830;BME280;5972;42.134;24.718;2024-01-16T00:12:22;98370.38;;;2.62;100.00
11830;BME280;5972;42.134;24.718;2024-01-16T00:14:49;98364.41;;;2.57;100.00
11830;BME280;5972;42.134;24.718;2024-01-16T00:17:22;98372.28;;;2.53;100.00
11830;BME280;5972;42.134;24.718;2024-01-16T00:19:49;98363.19;;;2.45;100.00
11830;BME280;5972;42.134;24.718;2024-01-16T00:22:17;98358.25;;;2.27;100.00
11830;BME280;5972;42.134;24.718;2024-01-16T00:24:44;98367.03;;;2.27;100.00
11830;BME280;5972;42.134;24.718;2024-01-16T00:27:11;98379.75;;;2.22;100.00
11830;BME280;5972;42.134;24.718;2024-01-16T00:29:38;98374.88;;;2.15;100.00
11830;BME280;5972;42.134;24.718;2024-01-16T00:32:07;98387.41;;;2.23;100.00
11830;BME280;5972;42.134;24.718;2024-01-16T00:34:34;98380.09;;;2.12;100.00
11830;BME280;5972;42.134;24.718;2024-01-16T00:37:01;98393.09;;;2.13;100.00
11830;BME280;5972;42.134;24.718;2024-01-16T00:39:29;98388.69;;;2.08;100.00
11830;BME280;5972;42.134;24.718;2024-01-16T00:41:56;98394.66;;;1.97;100.00
11830;BME280;5972;42.134;24.718;2024-01-16T00:44:23;98399.06;;;2.01;100.00
11830;BME280;5972;42.134;24.718;2024-01-16T00:46:50;98398.75;;;2.03;100.00
11830;BME280;5972;42.134;24.718;2024-01-16T00:49:17;98373.50;;;2.00;100.00
11830;BME280;5972;42.134;24.718;2024-01-16T00:51:44;98369.72;;;1.84;100.00
11830;BME280;5972;42.134;24.718;2024-01-16T00:54:11;98381.03;;;1.98;100.00
11830;BME280;5972;42.134;24.718;2024-01-16T00:56:41;98337.88;;;1.79;100.00
11830;BME280;5972;42.134;24.718;2024-01-16T00:59:08;98375.84;;;2.02;100.00
11830;BME280;5972;42.134;24.718;2024-01-16T01:01:37;98376.94;;;2.01;100.00
11830;BME280;5972;42.134;24.718;2024-01-16T01:04:04;98351.66;;;1.90;100.00
11830;BME280;5972;42.134;24.718;2024-01-16T01:06:31;98348.25;;;1.89;100.00
11830;BME280;5972;42.134;24.718;2024-01-16T01:08:58;98361.09;;;2.04;100.00
11830;BME280;5972;42.134;24.718;2024-01-16T01:11:26;98361.53;;;2.06;100.00
11830;BME280;5972;42.134;24.718;2024-01-16T01:13:54;98354.34;;;1.98;100.00
11830;BME280;5972;42.134;24.718;2024-01-16T01:16:21;98330.06;;;1.83;100.00
11830;BME280;5972;42.134;24.718;2024-01-16T01:18:48;98353.59;;;1.89;100.00
11830;BME280;5972;42.134;24.718;2024-01-16T01:21:15;98357.00;;;1.90;100.00
11830;BME280;5972;42.134;24.718;2024-01-16T01:23:43;98336.16;;;1.92;100.00
11830;BME280;5972;42.134;24.718;2024-01-16T01:26:10;98330.66;;;1.88;100.00
11830;BME280;5972;42.134;24.718;2024-01-16T01:28:39;98332.25;;;1.89;100.00
11830;BME280;5972;42.134;24.718;2024-01-16T01:31:08;98324.38;;;1.93;100.00
11830;BME280;5972;42.134;24.718;2024-01-16T01:33:35;98320.63;;;1.94;100.00
11830;BME280;5972;42.134;24.718;2024-01-16T01:36:02;98311.38;;;1.83;100.00
11830;BME280;5972;42.134;24.718;2024-01-16T01:38:33;98330.84;;;1.83;100.00
11830;BME280;5972;42.134;24.718;2024-01-16T01:41:00;98317.97;;;1.77;100.00
11830;BME280;5972;42.134;24.718;2024-01-16T01:43:27;98318.59;;;1.82;100.00
11830;BME280;5972;42.134;24.718;2024-01-16T01:46:10;98323.75;;;1.87;100.00
11830;BME280;5972;42.134;24.718;2024-01-16T01:48:40;98328.81;;;1.72;100.00
11830;BME280;5972;42.134;24.718;2024-01-16T01:51:08;98334.75;;;1.77;100.00
11830;BME280;5972;42.134;24.718;2024-01-16T01:53:36;98353.72;;;1.76;100.00
11830;BME280;5972;42.134;24.718;2024-01-16T01:56:08;98341.66;;;1.61;100.00
11830;BME280;5972;42.134;24.718;2024-01-16T01:58:37;98346.19;;;1.69;100.00
11830;BME280;5972;42.134;24.718;2024-01-16T02:01:06;98340.56;;;1.71;100.00
11830;BME280;5972;42.134;24.718;2024-01-16T02:03:40;98345.88;;;1.71;100.00
11830;BME280;5972;42.134;24.718;2024-01-16T02:06:07;98330.34;;;1.64;100.00
11830;BME280;5972;42.134;24.718;2024-01-16T02:08:35;98335.53;;;1.69;100.00
11830;BME280;5972;42.134;24.718;2024-01-16T02:11:02;98351.53;;;1.69;100.00
11830;BME280;5972;42.134;24.718;2024-01-16T02:13:29;98345.13;;;1.61;100.00
11830;BME280;5972;42.134;24.718;2024-01-16T02:15:56;98338.66;;;1.62;100.00
11830;BME280;5972;42.134;24.718;2024-01-16T02:18:23;98340.72;;;1.65;100.00
11830;BME280;5972;42.134;24.718;2024-01-16T02:20:52;98336.16;;;1.49;100.00
11830;BME280;5972;42.134;24.718;2024-01-16T02:23:26;98351.69;;;1.55;100.00
11830;BME280;5972;42.134;24.718;2024-01-16T02:25:54;98358.91;;;1.55;100.00
11830;BME280;5972;42.134;24.718;2024-01-16T02:28:21;98354.50;;;1.59;100.00
11830;BME280;5972;42.134;24.718;2024-01-16T02:30:48;98357.19;;;1.59;100.00
11830;BME280;5972;42.134;24.718;2024-01-16T02:33:15;98355.91;;;1.56;100.00
11830;BME280;5972;42.134;24.718;2024-01-16T02:35:42;98353.41;;;1.60;100.00
11830;BME280;5972;42.134;24.718;2024-01-16T02:38:09;98353.88;;;1.62;100.00
11830;BME280;5972;42.134;24.718;2024-01-16T02:40:37;98354.34;;;1.64;100.00
11830;BME280;5972;42.134;24.718;2024-01-16T02:43:05;98358.91;;;1.72;100.00
11830;BME280;5972;42.134;24.718;2024-01-16T02:45:32;98356.88;;;1.69;100.00
11830;BME280;5972;42.134;24.718;2024-01-16T02:47:59;98350.75;;;1.86;100.00
11830;BME280;5972;42.134;24.718;2024-01-16T02:50:26;98336.78;;;1.89;100.00
11830;BME280;5972;42.134;24.718;2024-01-16T02:52:53;98339.59;;;1.92;100.00
11830;BME280;5972;42.134;24.718;2024-01-16T02:55:20;98356.88;;;1.95;100.00
11830;BME280;5972;42.134;24.718;2024-01-16T02:57:49;98362.84;;;1.83;100.00
11830;BME280;5972;42.134;24.718;2024-01-16T03:00:16;98358.44;;;1.87;100.00
11830;BME280;5972;42.134;24.718;2024-01-16T03:02:44;98353.59;;;1.89;100.00
11830;BME280;5972;42.134;24.718;2024-01-16T03:05:11;98369.59;;;1.89;100.00
11830;BME280;5972;42.134;24.718;2024-01-16T03:07:38;98370.19;;;1.86;100.00
11830;BME280;5972;42.134;24.718;2024-01-16T03:10:06;98368.16;;;1.92;100.00
11830;BME280;5972;42.134;24.718;2024-01-16T03:12:33;98363.47;;;1.89;100.00
11830;BME280;5972;42.134;24.718;2024-01-16T03:15:02;98370.03;;;1.91;100.00
11830;BME280;5972;42.134;24.718;2024-01-16T03:17:29;98369.56;;;1.98;100.00
11830;BME280;5972;42.134;24.718;2024-01-16T03:19:56;98351.69;;;1.81;100.00
11830;BME280;5972;42.134;24.718;2024-01-16T03:22:24;98361.88;;;1.79;100.00
11830;BME280;5972;42.134;24.718;2024-01-16T03:24:51;98368.97;;;1.84;100.00
11830;BME280;5972;42.134;24.718;2024-01-16T03:27:18;98364.69;;;1.91;100.00
11830;BME280;5972;42.134;24.718;2024-01-16T03:29:45;98364.41;;;1.93;100.00
11830;BME280;5972;42.134;24.718;2024-01-16T03:32:13;98299.81;;;1.61;100.00
11830;BME280;5972;42.134;24.718;2024-01-16T03:34:40;98359.69;;;1.73;100.00
11830;BME280;5972;42.134;24.718;2024-01-16T03:37:07;98375.22;;;1.79;100.00
11830;BME280;5972;42.134;24.718;2024-01-16T03:39:34;98365.94;;;1.68;100.00
11830;BME280;5972;42.134;24.718;2024-01-16T03:42:01;98385.91;;;1.88;100.00
11830;BME280;5972;42.134;24.718;2024-01-16T03:44:28;98384.94;;;1.75;100.00
11830;BME280;5972;42.134;24.718;2024-01-16T03:46:55;98395.63;;;1.92;100.00
11830;BME280;5972;42.134;24.718;2024-01-16T03:49:24;98373.81;;;1.82;100.00
11830;BME280;5972;42.134;24.718;2024-01-16T03:52:09;98401.88;;;1.96;100.00
11830;BME280;5972;42.134;24.718;2024-01-16T03:54:36;98401.44;;;1.94;100.00
11830;BME280;5972;42.134;24.718;2024-01-16T03:57:03;98397.16;;;1.85;100.00
11830;BME280;5972;42.134;24.718;2024-01-16T03:59:30;98410.03;;;1.91;100.00
11830;BME280;5972;42.134;24.718;2024-01-16T04:01:57;98413.50;;;1.83;100.00
11830;BME280;5972;42.134;24.718;2024-01-16T04:04:26;98423.84;;;1.85;100.00
11830;BME280;5972;42.134;24.718;2024-01-16T04:06:53;98409.88;;;1.71;100.00
11830;BME280;5972;42.134;24.718;2024-01-16T04:09:21;98399.06;;;1.67;100.00
11830;BME280;5972;42.134;24.718;2024-01-16T04:11:50;98434.34;;;1.90;100.00
11830;BME280;5972;42.134;24.718;2024-01-16T04:14:17;98442.50;;;1.85;100.00
11830;BME280;5972;42.134;24.718;2024-01-16T04:16:44;98453.81;;;1.90;100.00
11830;BME280;5972;42.134;24.718;2024-01-16T04:19:11;98455.22;;;1.96;100.00
11830;BME280;5972;42.134;24.718;2024-01-16T04:21:39;98453.19;;;1.93;100.00
11830;BME280;5972;42.134;24.718;2024-01-16T04:24:06;98467.78;;;1.96;100.00
11830;BME280;5972;42.134;24.718;2024-01-16T04:26:35;98444.84;;;1.69;100.00
11830;BME280;5972;42.134;24.718;2024-01-16T04:29:03;98451.59;;;1.66;100.00
11830;BME280;5972;42.134;24.718;2024-01-16T04:31:30;98464.81;;;1.89;100.00
11830;BME280;5972;42.134;24.718;2024-01-16T04:33:58;98479.88;;;2.02;100.00
11830;BME280;5972;42.134;24.718;2024-01-16T04:36:25;98475.31;;;1.85;100.00
11830;BME280;5972;42.134;24.718;2024-01-16T04:38:53;98474.34;;;1.90;100.00
11830;BME280;5972;42.134;24.718;2024-01-16T04:41:20;98477.84;;;1.99;100.00
11830;BME280;5972;42.134;24.718;2024-01-16T04:43:47;98477.84;;;2.07;100.00
11830;BME280;5972;42.134;24.718;2024-01-16T04:46:15;98481.78;;;2.10;100.00
11830;BME280;5972;42.134;24.718;2024-01-16T04:48:42;98501.88;;;2.16;100.00
11830;BME280;5972;42.134;24.718;2024-01-16T04:51:10;98497.97;;;2.22;100.00
11830;BME280;5972;42.134;24.718;2024-01-16T04:53:46;98507.38;;;2.28;100.00
11830;BME280;5972;42.134;24.718;2024-01-16T04:56:15;98500.75;;;2.34;100.00
11830;BME280;5972;42.134;24.718;2024-01-16T04:58:42;98509.25;;;2.45;100.00
11830;BME280;5972;42.134;24.718;2024-01-16T05:01:09;98505.47;;;2.46;100.00
11830;BME280;5972;42.134;24.718;2024-01-16T05:03:36;98527.63;;;2.55;100.00
11830;BME280;5972;42.134;24.718;2024-01-16T05:06:03;98512.88;;;2.49;100.00
11830;BME280;5972;42.134;24.718;2024-01-16T05:08:30;98530.13;;;2.60;100.00
11830;BME280;5972;42.134;24.718;2024-01-16T05:10:58;98529.81;;;2.62;100.00
11830;BME280;5972;42.134;24.718;2024-01-16T05:13:26;98546.47;;;2.76;100.00
11830;BME280;5972;42.134;24.718;2024-01-16T05:15:53;98543.16;;;2.70;100.00
11830;BME280;5972;42.134;24.718;2024-01-16T05:18:20;98546.16;;;2.60;100.00
11830;BME280;5972;42.134;24.718;2024-01-16T05:20:47;98541.44;;;2.57;100.00
11830;BME280;5972;42.134;24.718;2024-01-16T05:23:14;98561.22;;;2.65;100.00
11830;BME280;5972;42.134;24.718;2024-01-16T05:25:41;98568.91;;;2.58;100.00
11830;BME280;5972;42.134;24.718;2024-01-16T05:28:08;98580.41;;;2.49;100.00
11830;BME280;5972;42.134;24.718;2024-01-16T05:30:37;98593.28;;;2.39;100.00
11830;BME280;5972;42.134;24.718;2024-01-16T05:33:04;98595.44;;;2.45;100.00
11830;BME280;5972;42.134;24.718;2024-01-16T05:35:43;98595.16;;;2.47;100.00
11830;BME280;5972;42.134;24.718;2024-01-16T05:38:10;98600.34;;;2.43;100.00
11830;BME280;5972;42.134;24.718;2024-01-16T05:40:38;98606.44;;;2.35;100.00
11830;BME280;5972;42.134;24.718;2024-01-16T05:43:05;98614.00;;;2.50;100.00
11830;BME280;5972;42.134;24.718;2024-01-16T05:45:32;98620.13;;;2.60;100.00
11830;BME280;5972;42.134;24.718;2024-01-16T05:48:00;98625.00;;;2.58;100.00
11830;BME280;5972;42.134;24.718;2024-01-16T05:50:28;98567.63;;;2.29;100.00
11830;BME280;5972;42.134;24.718;2024-01-16T05:52:55;98646.06;;;2.76;100.00
11830;BME280;5972;42.134;24.718;2024-01-16T05:55:22;98648.59;;;2.81;100.00
11830;BME280;5972;42.134;24.718;2024-01-16T05:57:49;98662.72;;;2.90;100.00
11830;BME280;5972;42.134;24.718;2024-01-16T06:00:17;98652.06;;;2.99;100.00
11830;BME280;5972;42.134;24.718;2024-01-16T06:02:46;98659.72;;;3.18;100.00
11830;BME280;5972;42.134;24.718;2024-01-16T06:05:14;98623.44;;;3.08;100.00
11830;BME280;5972;42.134;24.718;2024-01-16T06:07:41;98645.41;;;3.40;100.00
11830;BME280;5972;42.134;24.718;2024-01-16T06:10:11;98668.47;;;3.79;100.00
11830;BME280;5972;42.134;24.718;2024-01-16T06:12:38;98665.81;;;4.08;100.00
11830;BME280;5972;42.134;24.718;2024-01-16T06:15:06;98669.19;;;4.34;100.00
11830;BME280;5972;42.134;24.718;2024-01-16T06:17:33;98666.94;;;4.66;100.00
11830;BME280;5972;42.134;24.718;2024-01-16T06:20:00;98681.41;;;4.94;100.00
11830;BME280;5972;42.134;24.718;2024-01-16T06:22:29;98686.56;;;5.20;100.00
11830;BME280;5972;42.134;24.718;2024-01-16T06:24:56;98702.63;;;5.61;100.00
11830;BME280;5972;42.134;24.718;2024-01-16T06:27:23;98719.34;;;5.79;100.00
11830;BME280;5972;42.134;24.718;2024-01-16T06:29:50;98731.94;;;5.99;100.00
11830;BME280;5972;42.134;24.718;2024-01-16T06:32:17;98730.06;;;6.12;100.00
11830;BME280;5972;42.134;24.718;2024-01-16T06:34:44;98742.53;;;6.29;100.00
11830;BME280;5972;42.134;24.718;2024-01-16T06:37:11;98736.72;;;6.51;100.00
11830;BME280;5972;42.134;24.718;2024-01-16T06:39:40;98733.91;;;6.72;100.00
11830;BME280;5972;42.134;24.718;2024-01-16T06:42:07;98747.13;;;6.89;100.00
11830;BME280;5972;42.134;24.718;2024-01-16T06:44:34;98751.13;;;7.07;100.00
11830;BME280;5972;42.134;24.718;2024-01-16T06:47:01;98757.16;;;7.16;100.00
11830;BME280;5972;42.134;24.718;2024-01-16T06:49:28;98772.16;;;7.29;100.00
11830;BME280;5972;42.134;24.718;2024-01-16T06:51:55;98777.84;;;7.52;100.00
11830;BME280;5972;42.134;24.718;2024-01-16T06:54:22;98783.75;;;7.58;100.00
11830;BME280;5972;42.134;24.718;2024-01-16T06:56:51;98787.09;;;7.67;100.00
11830;BME280;5972;42.134;24.718;2024-01-16T06:59:18;98791.78;;;7.70;100.00
11830;BME280;5972;42.134;24.718;2024-01-16T07:01:47;98796.56;;;7.76;100.00
11830;BME280;5972;42.134;24.718;2024-01-16T07:04:14;98810.16;;;7.80;100.00
11830;BME280;5972;42.134;24.718;2024-01-16T07:06:41;98816.09;;;7.85;100.00
11830;BME280;5972;42.134;24.718;2024-01-16T07:09:09;98824.00;;;7.94;100.00
11830;BME280;5972;42.134;24.718;2024-01-16T07:11:37;98823.31;;;7.97;100.00
11830;BME280;5972;42.134;24.718;2024-01-16T07:14:09;98824.00;;;7.94;100.00
11830;BME280;5972;42.134;24.718;2024-01-16T07:16:36;98853.25;;;8.08;100.00
11830;BME280;5972;42.134;24.718;2024-01-16T07:19:03;98856.38;;;8.10;100.00
11830;BME280;5972;42.134;24.718;2024-01-16T07:21:30;98863.38;;;7.99;100.00
11830;BME280;5972;42.134;24.718;2024-01-16T07:23:57;98868.34;;;7.97;100.00
11830;BME280;5972;42.134;24.718;2024-01-16T07:26:24;98877.72;;;8.03;100.00
11830;BME280;5972;42.134;24.718;2024-01-16T07:28:51;98890.63;;;8.09;100.00
11830;BME280;5972;42.134;24.718;2024-01-16T07:31:20;98892.66;;;8.12;100.00
11830;BME280;5972;42.134;24.718;2024-01-16T07:33:47;98891.53;;;8.13;100.00
11830;BME280;5972;42.134;24.718;2024-01-16T07:36:14;98905.53;;;8.19;100.00
11830;BME280;5972;42.134;24.718;2024-01-16T07:38:41;98898.38;;;8.11;100.00
11830;BME280;5972;42.134;24.718;2024-01-16T07:41:08;98928.31;;;8.33;100.00
11830;BME280;5972;42.134;24.718;2024-01-16T07:43:35;98938.28;;;8.33;100.00
11830;BME280;5972;42.134;24.718;2024-01-16T07:46:01;98952.47;;;8.30;100.00
11830;BME280;5972;42.134;24.718;2024-01-16T07:48:30;98962.94;;;8.47;100.00
11830;BME280;5972;42.134;24.718;2024-01-16T07:50:57;98950.66;;;8.34;100.00
11830;BME280;5972;42.134;24.718;2024-01-16T07:53:24;98973.34;;;8.33;100.00
11830;BME280;5972;42.134;24.718;2024-01-16T07:55:53;98972.63;;;8.36;100.00
11830;BME280;5972;42.134;24.718;2024-01-16T07:58:21;98986.81;;;8.33;100.00
11830;BME280;5972;42.134;24.718;2024-01-16T08:00:48;98994.91;;;8.33;100.00
11830;BME280;5972;42.134;24.718;2024-01-16T08:03:15;99009.25;;;8.37;100.00
11830;BME280;5972;42.134;24.718;2024-01-16T08:05:44;99011.06;;;8.33;100.00
11830;BME280;5972;42.134;24.718;2024-01-16T08:08:11;99026.34;;;8.41;100.00
11830;BME280;5972;42.134;24.718;2024-01-16T08:10:38;99031.06;;;8.32;100.00
11830;BME280;5972;42.134;24.718;2024-01-16T08:13:07;99031.72;;;8.41;100.00
11830;BME280;5972;42.134;24.718;2024-01-16T08:15:34;99011.41;;;8.31;100.00
11830;BME280;5972;42.134;24.718;2024-01-16T08:18:01;99025.06;;;8.51;100.00
11830;BME280;5972;42.134;24.718;2024-01-16T08:20:28;99033.25;;;8.54;100.00
11830;BME280;5972;42.134;24.718;2024-01-16T08:22:57;99027.75;;;8.51;100.00
11830;BME280;5972;42.134;24.718;2024-01-16T08:25:24;99039.84;;;8.69;100.00
11830;BME280;5972;42.134;24.718;2024-01-16T08:27:51;99040.97;;;8.68;100.00
11830;BME280;5972;42.134;24.718;2024-01-16T08:30:18;99036.53;;;8.75;100.00
11830;BME280;5972;42.134;24.718;2024-01-16T08:32:45;99048.41;;;8.87;100.00
11830;BME280;5972;42.134;24.718;2024-01-16T08:35:12;99040.72;;;9.01;99.50
11830;BME280;5972;42.134;24.718;2024-01-16T08:37:39;99051.47;;;9.13;96.04
11830;BME280;5972;42.134;24.718;2024-01-16T08:40:08;99054.97;;;9.29;91.30
11830;BME280;5972;42.134;24.718;2024-01-16T08:42:37;99059.94;;;9.43;88.52
11830;BME280;5972;42.134;24.718;2024-01-16T08:45:04;99061.38;;;9.52;85.25
11830;BME280;5972;42.134;24.718;2024-01-16T08:47:32;99081.56;;;9.58;84.33
11830;BME280;5972;42.134;24.718;2024-01-16T08:49:59;99086.28;;;9.77;84.10
11830;BME280;5972;42.134;24.718;2024-01-16T08:52:26;99087.34;;;9.73;83.22
11830;BME280;5972;42.134;24.718;2024-01-16T08:54:53;99071.00;;;9.53;82.70
11830;BME280;5972;42.134;24.718;2024-01-16T08:57:21;99095.00;;;9.71;81.88
11830;BME280;5972;42.134;24.718;2024-01-16T08:59:48;99092.81;;;9.60;80.73
11830;BME280;5972;42.134;24.718;2024-01-16T09:02:15;99114.09;;;9.78;79.78
11830;BME280;5972;42.134;24.718;2024-01-16T09:04:42;99118.03;;;9.80;79.48
11830;BME280;5972;42.134;24.718;2024-01-16T09:07:09;99107.13;;;9.77;79.52
11830;BME280;5972;42.134;24.718;2024-01-16T09:09:36;99124.19;;;9.81;78.57
11830;BME280;5972;42.134;24.718;2024-01-16T09:12:04;99127.97;;;10.08;77.17
11830;BME280;5972;42.134;24.718;2024-01-16T09:14:32;99137.09;;;10.50;76.53
11830;BME280;5972;42.134;24.718;2024-01-16T09:16:59;99125.66;;;10.92;73.14
11830;BME280;5972;42.134;24.718;2024-01-16T09:19:26;99128.41;;;11.53;69.76
11830;BME280;5972;42.134;24.718;2024-01-16T09:21:53;99116.31;;;12.68;62.23
11830;BME280;5972;42.134;24.718;2024-01-16T09:24:20;99110.47;;;14.03;54.20
11830;BME280;5972;42.134;24.718;2024-01-16T09:26:47;99129.16;;;15.42;49.03
11830;BME280;5972;42.134;24.718;2024-01-16T09:29:14;99132.41;;;16.36;45.49
11830;BME280;5972;42.134;24.718;2024-01-16T09:31:43;99133.56;;;15.86;43.25
11830;BME280;5972;42.134;24.718;2024-01-16T09:34:10;99142.53;;;14.82;44.38
11830;BME280;5972;42.134;24.718;2024-01-16T09:36:38;99122.81;;;14.37;44.73
11830;BME280;5972;42.134;24.718;2024-01-16T09:39:06;99155.59;;;14.11;46.47
11830;BME280;5972;42.134;24.718;2024-01-16T09:41:34;99149.97;;;13.90;45.62
11830;BME280;5972;42.134;24.718;2024-01-16T09:44:01;99155.28;;;13.76;46.19
11830;BME280;5972;42.134;24.718;2024-01-16T09:46:30;99134.94;;;13.62;45.00
11830;BME280;5972;42.134;24.718;2024-01-16T09:48:59;99164.75;;;13.55;45.93
11830;BME280;5972;42.134;24.718;2024-01-16T09:51:27;99159.13;;;13.38;46.46
11830;BME280;5972;42.134;24.718;2024-01-16T09:54:00;99163.19;;;13.54;45.94
11830;BME280;5972;42.134;24.718;2024-01-16T09:56:35;99173.47;;;13.71;44.55
11830;BME280;5972;42.134;24.718;2024-01-16T09:59:06;99177.69;;;13.32;44.58
11830;BME280;5972;42.134;24.718;2024-01-16T10:01:36;99158.09;;;13.16;44.19
11830;BME280;5972;42.134;24.718;2024-01-16T10:04:06;99141.09;;;13.56;44.11
11830;BME280;5972;42.134;24.718;2024-01-16T10:06:33;99143.66;;;14.23;43.51
11830;BME280;5972;42.134;24.718;2024-01-16T10:09:01;99174.44;;;15.64;40.63
11830;BME280;5972;42.134;24.718;2024-01-16T10:11:29;99162.44;;;16.15;39.14
11830;BME280;5972;42.134;24.718;2024-01-16T10:13:57;99172.88;;;15.67;39.00
11830;BME280;5972;42.134;24.718;2024-01-16T10:17:00;99185.78;;;14.94;39.92
11830;BME280;5972;42.134;24.718;2024-01-16T10:19:32;99171.81;;;15.03;40.39
11830;BME280;5972;42.134;24.718;2024-01-16T10:22:03;99182.28;;;15.80;38.97
11830;BME280;5972;42.134;24.718;2024-01-16T10:24:30;99178.97;;;15.32;39.20
11830;BME280;5972;42.134;24.718;2024-01-16T10:26:59;99193.53;;;14.85;40.30
11830;BME280;5972;42.134;24.718;2024-01-16T10:29:28;99191.56;;;14.34;41.02
11830;BME280;5972;42.134;24.718;2024-01-16T10:31:55;99205.47;;;15.38;40.00
11830;BME280;5972;42.134;24.718;2024-01-16T10:34:23;99179.63;;;15.04;40.02
11830;BME280;5972;42.134;24.718;2024-01-16T10:36:52;99182.91;;;14.69;40.06
11830;BME280;5972;42.134;24.718;2024-01-16T10:39:24;99165.47;;;13.49;41.24
11830;BME280;5972;42.134;24.718;2024-01-16T10:41:54;99197.31;;;13.18;42.55
11830;BME280;5972;42.134;24.718;2024-01-16T10:44:22;99202.16;;;13.06;43.26
11830;BME280;5972;42.134;24.718;2024-01-16T10:46:49;99180.34;;;12.72;43.70
11830;BME280;5972;42.134;24.718;2024-01-16T10:49:16;99191.34;;;12.53;44.24
11830;BME280;5972;42.134;24.718;2024-01-16T10:51:43;99203.78;;;12.08;44.71
11830;BME280;5972;42.134;24.718;2024-01-16T10:54:13;99212.19;;;11.81;45.29
11830;BME280;5972;42.134;24.718;2024-01-16T10:56:44;99191.84;;;12.36;45.21
11830;BME280;5972;42.134;24.718;2024-01-16T10:59:18;99199.56;;;12.60;44.57
11830;BME280;5972;42.134;24.718;2024-01-16T11:01:47;99196.19;;;12.67;44.20
11830;BME280;5972;42.134;24.718;2024-01-16T11:04:15;99202.91;;;13.62;42.66
11830;BME280;5972;42.134;24.718;2024-01-16T11:06:43;99201.00;;;14.44;40.96
11830;BME280;5972;42.134;24.718;2024-01-16T11:09:14;99208.53;;;14.61;40.42
11830;BME280;5972;42.134;24.718;2024-01-16T11:11:44;99222.19;;;14.65;40.16
11830;BME280;5972;42.134;24.718;2024-01-16T11:14:12;99220.25;;;14.65;39.79
11830;BME280;5972;42.134;24.718;2024-01-16T11:16:41;99222.22;;;13.87;40.25
11830;BME280;5972;42.134;24.718;2024-01-16T11:19:09;99183.03;;;12.69;41.93
11830;BME280;5972;42.134;24.718;2024-01-16T11:21:38;99202.72;;;13.15;41.34
11830;BME280;5972;42.134;24.718;2024-01-16T11:24:06;99222.28;;;13.27;41.32
11830;BME280;5972;42.134;24.718;2024-01-16T11:26:35;99217.06;;;13.45;41.63
11830;BME280;5972;42.134;24.718;2024-01-16T11:29:36;99208.91;;;13.45;40.76
11830;BME280;5972;42.134;24.718;2024-01-16T11:32:04;99219.06;;;13.48;41.06
11830;BME280;5972;42.134;24.718;2024-01-16T11:34:52;99221.41;;;13.20;41.33
11830;BME280;5972;42.134;24.718;2024-01-16T11:37:28;99221.72;;;13.45;40.68
11830;BME280;5972;42.134;24.718;2024-01-16T11:40:29;99212.63;;;13.30;40.66
11830;BME280;5972;42.134;24.718;2024-01-16T11:43:35;99202.78;;;12.92;41.05
11830;BME280;5972;42.134;24.718;2024-01-16T11:46:05;99187.34;;;12.47;41.32
11830;BME280;5972;42.134;24.718;2024-01-16T11:48:33;99211.13;;;12.54;41.37
11830;BME280;5972;42.134;24.718;2024-01-16T11:51:00;99230.16;;;12.12;41.81
11830;BME280;5972;42.134;24.718;2024-01-16T11:53:47;99240.88;;;11.66;42.04
11830;BME280;5972;42.134;24.718;2024-01-16T11:56:39;99243.88;;;11.61;42.68
11830;BME280;5972;42.134;24.718;2024-01-16T11:59:36;99241.13;;;11.77;42.32
11830;BME280;5972;42.134;24.718;2024-01-16T12:02:12;99245.44;;;12.00;42.45
11830;BME280;5972;42.134;24.718;2024-01-16T12:04:41;99250.66;;;12.09;41.63
11830;BME280;5972;42.134;24.718;2024-01-16T12:07:08;99248.25;;;11.85;42.22
11830;BME280;5972;42.134;24.718;2024-01-16T12:09:36;99251.91;;;11.92;42.02
11830;BME280;5972;42.134;24.718;2024-01-16T12:12:04;99246.63;;;11.80;42.55
11830;BME280;5972;42.134;24.718;2024-01-16T12:14:32;99258.38;;;11.88;41.38
11830;BME280;5972;42.134;24.718;2024-01-16T12:17:08;99267.78;;;11.94;41.60
11830;BME280;5972;42.134;24.718;2024-01-16T12:19:36;99256.84;;;11.87;41.74
11830;BME280;5972;42.134;24.718;2024-01-16T12:22:08;99258.03;;;11.89;42.34
11830;BME280;5972;42.134;24.718;2024-01-16T12:24:35;99262.16;;;12.02;42.61
11830;BME280;5972;42.134;24.718;2024-01-16T12:27:03;99249.91;;;11.89;41.80
11830;BME280;5972;42.134;24.718;2024-01-16T12:29:32;99249.19;;;11.92;41.49
11830;BME280;5972;42.134;24.718;2024-01-16T12:32:08;99257.19;;;11.85;42.42
11830;BME280;5972;42.134;24.718;2024-01-16T12:34:44;99278.72;;;11.97;42.23
11830;BME280;5972;42.134;24.718;2024-01-16T12:37:12;99280.66;;;11.78;42.02
11830;BME280;5972;42.134;24.718;2024-01-16T12:39:39;99282.81;;;11.72;41.53
11830;BME280;5972;42.134;24.718;2024-01-16T12:42:07;99276.91;;;11.66;41.66
11830;BME280;5972;42.134;24.718;2024-01-16T12:44:38;99298.94;;;11.65;41.94
11830;BME280;5972;42.134;24.718;2024-01-16T12:47:06;99303.22;;;11.66;41.94
11830;BME280;5972;42.134;24.718;2024-01-16T12:49:40;99303.72;;;11.52;42.46
11830;BME280;5972;42.134;24.718;2024-01-16T12:52:21;99303.22;;;11.47;42.56
11830;BME280;5972;42.134;24.718;2024-01-16T12:54:58;99306.47;;;11.37;42.60
11830;BME280;5972;42.134;24.718;2024-01-16T12:57:26;99311.34;;;11.47;42.81
11830;BME280;5972;42.134;24.718;2024-01-16T12:59:54;99312.25;;;11.35;43.31
11830;BME280;5972;42.134;24.718;2024-01-16T13:02:24;99322.06;;;11.24;42.82
11830;BME280;5972;42.134;24.718;2024-01-16T13:04:57;99331.59;;;11.18;43.31
11830;BME280;5972;42.134;24.718;2024-01-16T13:07:25;99324.94;;;11.15;42.90